Limoeiro Do Ajuru, Brazil
Current Conditions -  °F | °C
As of 6:00 PM on Wednesday 22 Oct 2014 (Local Time) from SBBE Reporting Station
Broken Clouds Broken Clouds  
Wind Chill: 73°   Ceiling: 10000
Heat Index: 73°   Visibility: 6mi
Dew Point: 72°   Wind: 5mph
Humidity: 94%   Direction: 60°ENE
Pressure: 29.83"   Gusts: NA
Location:  1.93°S, 49.37°W
Report Text: SBBE 222100Z 06004KT 9999 SCT020 FEW025TCU BKN100 23/22 Q1010 R ETSRA
Loading
Personal Weather Stations






























Interactive Weather Map
Tropical Storm Tracking
New forecast layout! Learn more

10-Day Weather Forecast

Advertisements
Track Severe Weather on mobile